Garfield, AR (72732)

9:03 PM CDT on July 01, 2015 (GMT -0500)
Sky Ranch Airfield | | Change Station
CLOSE
Current Station
Personal Weather Station
Location: Busch, AR
Elevation: 1064 ft
Nearby Weather Stations

Elev 1064 ft 36.46 °N, 93.82 °W | Updated 35 seconds ago

Partly Cloudy
Partly Cloudy
82.5 °F
Feels Like 89 °F
N
5.8
Wind Variable Wind from SW
Gusts 8.7 mph

Today
High -- | Low -- °F
--% Chance of Precip.
Yesterday
High -- | Low -- °F
Precip. -- in
6:01 AM 8:37 PM
Full, 100% visible
Pressure 29.84 in
Visibility 10.0 miles
Clouds Clear
Heat Index 89 °F
Dew Point 74 °F
Humidity 75%
Rainfall 0.00 in
Snow Depth Not available.
UV 0 out of 12
Pollen .50 out of 12
Air Quality Not available.
Flu Activity Not available.
METAR KROG 020157Z AUTO 21011KT 10SM CLR 28/21 A2989 RMK AO2 SLP105 T02780211 TSNO

More Conditions Fewer Conditions

Pressure 29.84 in
Visibility 10.0 miles
Clouds Clear
Heat Index 89 °F
Dew Point 74 °F
Humidity 75%
Rainfall 0.00 in
Snow Depth Not available.
UV 0 out of 12
Pollen .50 out of 12
Air Quality Not available.
Flu Activity Not available.
METAR KROG 020157Z AUTO 21011KT 10SM CLR 28/21 A2989 RMK AO2 SLP105 T02780211 TSNO

More Conditions Fewer Conditions

Nowcast | as of 8:00 PM CDT on July 1, 2015

At 8:00 PM...Doppler radars detected weakening scattered showers over far eastern Oklahoma and northwest Arkansas. New development has also occurred over south central Kansas into north central Oklahoma. All of this activity was moving southeast. Through 10:00 PM...portions of far eastern Oklahoma and northwest Arkansas can expect a few passing light showers or occasional sprinkles through sunset. This activity will continue to slowly weaken...resulting in rainfall amounts from a trace to a couple hundredths of an inch. The convection in north central Oklahoma will have the potential to move into Osage and Pawnee counties... where thunderstorms capable of producing locally heavy downpours...gusty winds and frequent lighting.

×

10-Day Weather Forecast

×

Almanac

Astronomy

Jul. 01, 2015 Rise Set
Actual Time
Civil Twilight
Nautical Twilight
Astronomical Twilight
Moon
Length of Visible Light
Length of Day
Tomorrow will be .
, % of the Moon is Illuminated

Today's Extremes

State Highs State Lows

Community

WunderPhotos

Upload Photos

1,834,376 photos uploaded!

WunderBlogs® & News

Nearby

Air Quality

  Air Quality AQ Index Pollutant
Not available.

Snow Depth

Station Depth Elevation

Earthquake Activity

City Distance Mag. Time & Date
Minimum magnitude displayed is 2.5.

Coastal Water Temperatures

Place Temperature

Stations

Nearby Weather Stations

Station Location Temp. Windchill Dew Point Humidity Wind Precip. Elev Updated Type